sensor_id;sensor_type;location;lat;lon;timestamp;P1;durP1;ratioP1;P2;durP2;ratioP2
74291;SDS011;62687;55.738;37.516;2023-03-25T00:01:41;5.88;;;2.40;;
74291;SDS011;62687;55.738;37.516;2023-03-25T00:04:26;5.10;;;2.67;;
74291;SDS011;62687;55.738;37.516;2023-03-25T00:07:10;3.85;;;2.53;;
74291;SDS011;62687;55.738;37.516;2023-03-25T00:09:54;7.35;;;2.10;;
74291;SDS011;62687;55.738;37.516;2023-03-25T00:12:38;7.38;;;2.65;;
74291;SDS011;62687;55.738;37.516;2023-03-25T00:15:23;5.93;;;2.38;;
74291;SDS011;62687;55.738;37.516;2023-03-25T00:18:07;4.55;;;2.30;;
74291;SDS011;62687;55.738;37.516;2023-03-25T00:20:51;7.28;;;2.35;;
74291;SDS011;62687;55.738;37.516;2023-03-25T00:23:36;4.22;;;2.30;;
74291;SDS011;62687;55.738;37.516;2023-03-25T00:26:21;6.20;;;2.20;;
74291;SDS011;62687;55.738;37.516;2023-03-25T00:29:06;4.15;;;1.85;;
74291;SDS011;62687;55.738;37.516;2023-03-25T00:31:50;4.85;;;2.38;;
74291;SDS011;62687;55.738;37.516;2023-03-25T00:34:34;3.83;;;2.78;;
74291;SDS011;62687;55.738;37.516;2023-03-25T00:37:24;4.10;;;1.80;;
74291;SDS011;62687;55.738;37.516;2023-03-25T00:40:10;6.45;;;2.17;;
74291;SDS011;62687;55.738;37.516;2023-03-25T00:42:54;6.25;;;2.10;;
74291;SDS011;62687;55.738;37.516;2023-03-25T00:45:39;5.93;;;1.80;;
74291;SDS011;62687;55.738;37.516;2023-03-25T00:48:23;4.40;;;1.80;;
74291;SDS011;62687;55.738;37.516;2023-03-25T00:51:09;3.70;;;1.70;;
74291;SDS011;62687;55.738;37.516;2023-03-25T00:53:57;5.20;;;2.13;;
74291;SDS011;62687;55.738;37.516;2023-03-25T00:56:45;3.42;;;2.13;;
74291;SDS011;62687;55.738;37.516;2023-03-25T00:59:30;3.17;;;1.70;;
74291;SDS011;62687;55.738;37.516;2023-03-25T01:02:14;4.03;;;1.85;;
74291;SDS011;62687;55.738;37.516;2023-03-25T01:04:59;4.13;;;2.00;;
74291;SDS011;62687;55.738;37.516;2023-03-25T01:07:43;4.43;;;2.00;;
74291;SDS011;62687;55.738;37.516;2023-03-25T01:10:28;4.20;;;2.00;;
74291;SDS011;62687;55.738;37.516;2023-03-25T01:13:12;3.30;;;1.95;;
74291;SDS011;62687;55.738;37.516;2023-03-25T01:15:56;4.20;;;2.00;;
74291;SDS011;62687;55.738;37.516;2023-03-25T01:18:40;3.95;;;1.65;;
74291;SDS011;62687;55.738;37.516;2023-03-25T01:21:25;4.03;;;1.90;;
74291;SDS011;62687;55.738;37.516;2023-03-25T01:24:10;4.13;;;1.80;;
74291;SDS011;62687;55.738;37.516;2023-03-25T01:26:56;4.60;;;1.58;;
74291;SDS011;62687;55.738;37.516;2023-03-25T01:29:41;4.72;;;2.30;;
74291;SDS011;62687;55.738;37.516;2023-03-25T01:32:25;3.13;;;1.83;;
74291;SDS011;62687;55.738;37.516;2023-03-25T01:35:11;3.00;;;1.58;;
74291;SDS011;62687;55.738;37.516;2023-03-25T01:37:56;4.07;;;2.10;;
74291;SDS011;62687;55.738;37.516;2023-03-25T01:40:40;4.60;;;1.95;;
74291;SDS011;62687;55.738;37.516;2023-03-25T01:43:24;5.18;;;1.75;;
74291;SDS011;62687;55.738;37.516;2023-03-25T01:46:11;5.55;;;2.00;;
74291;SDS011;62687;55.738;37.516;2023-03-25T01:48:58;4.05;;;1.75;;
74291;SDS011;62687;55.738;37.516;2023-03-25T01:51:46;3.05;;;1.33;;
74291;SDS011;62687;55.738;37.516;2023-03-25T01:54:33;4.63;;;1.67;;
74291;SDS011;62687;55.738;37.516;2023-03-25T01:57:17;3.78;;;1.70;;
74291;SDS011;62687;55.738;37.516;2023-03-25T02:00:04;4.88;;;1.90;;
74291;SDS011;62687;55.738;37.516;2023-03-25T02:02:52;3.70;;;2.00;;
74291;SDS011;62687;55.738;37.516;2023-03-25T02:05:50;12.80;;;2.10;;
74291;SDS011;62687;55.738;37.516;2023-03-25T02:08:41;5.65;;;2.22;;
74291;SDS011;62687;55.738;37.516;2023-03-25T02:11:25;4.47;;;1.75;;
74291;SDS011;62687;55.738;37.516;2023-03-25T02:14:13;6.57;;;2.05;;
74291;SDS011;62687;55.738;37.516;2023-03-25T02:45:31;8.32;;;2.05;;
74291;SDS011;62687;55.738;37.516;2023-03-25T02:48:31;4.25;;;2.08;;
74291;SDS011;62687;55.738;37.516;2023-03-25T02:51:51;4.20;;;2.50;;
74291;SDS011;62687;55.738;37.516;2023-03-25T02:54:46;5.65;;;2.60;;
74291;SDS011;62687;55.738;37.516;2023-03-25T02:57:36;4.68;;;2.00;;
74291;SDS011;62687;55.738;37.516;2023-03-25T03:00:25;4.38;;;2.20;;
74291;SDS011;62687;55.738;37.516;2023-03-25T03:03:12;6.00;;;1.83;;
74291;SDS011;62687;55.738;37.516;2023-03-25T03:05:59;6.57;;;2.25;;
74291;SDS011;62687;55.738;37.516;2023-03-25T03:19:59;3.65;;;1.90;;
74291;SDS011;62687;55.738;37.516;2023-03-25T03:28:41;8.18;;;2.17;;
74291;SDS011;62687;55.738;37.516;2023-03-25T03:35:08;4.25;;;2.45;;
74291;SDS011;62687;55.738;37.516;2023-03-25T03:38:07;3.55;;;2.08;;
74291;SDS011;62687;55.738;37.516;2023-03-25T03:40:57;4.45;;;2.20;;
74291;SDS011;62687;55.738;37.516;2023-03-25T03:43:48;3.47;;;2.22;;
74291;SDS011;62687;55.738;37.516;2023-03-25T03:46:53;3.50;;;2.25;;
74291;SDS011;62687;55.738;37.516;2023-03-25T03:49:43;6.00;;;2.53;;
74291;SDS011;62687;55.738;37.516;2023-03-25T03:52:35;4.95;;;2.22;;
74291;SDS011;62687;55.738;37.516;2023-03-25T03:55:24;4.53;;;2.10;;
74291;SDS011;62687;55.738;37.516;2023-03-25T03:58:13;5.97;;;2.33;;
74291;SDS011;62687;55.738;37.516;2023-03-25T04:01:43;3.83;;;2.30;;
74291;SDS011;62687;55.738;37.516;2023-03-25T04:04:29;5.80;;;2.40;;
74291;SDS011;62687;55.738;37.516;2023-03-25T04:07:18;6.97;;;2.42;;
74291;SDS011;62687;55.738;37.516;2023-03-25T04:10:20;5.20;;;2.63;;
74291;SDS011;62687;55.738;37.516;2023-03-25T04:13:09;4.22;;;2.60;;
74291;SDS011;62687;55.738;37.516;2023-03-25T04:15:57;4.10;;;2.25;;
74291;SDS011;62687;55.738;37.516;2023-03-25T04:18:43;5.57;;;2.38;;
74291;SDS011;62687;55.738;37.516;2023-03-25T04:21:31;4.07;;;2.30;;
74291;SDS011;62687;55.738;37.516;2023-03-25T04:24:16;4.95;;;2.70;;
74291;SDS011;62687;55.738;37.516;2023-03-25T04:27:02;5.15;;;2.22;;
74291;SDS011;62687;55.738;37.516;2023-03-25T04:29:47;6.18;;;2.53;;
74291;SDS011;62687;55.738;37.516;2023-03-25T04:32:34;5.10;;;2.17;;
74291;SDS011;62687;55.738;37.516;2023-03-25T04:35:18;5.03;;;2.13;;
74291;SDS011;62687;55.738;37.516;2023-03-25T04:38:03;4.50;;;2.33;;
74291;SDS011;62687;55.738;37.516;2023-03-25T04:40:48;5.15;;;2.30;;
74291;SDS011;62687;55.738;37.516;2023-03-25T04:43:32;4.03;;;1.98;;
74291;SDS011;62687;55.738;37.516;2023-03-25T04:46:16;5.63;;;2.22;;
74291;SDS011;62687;55.738;37.516;2023-03-25T04:49:02;4.13;;;2.10;;
74291;SDS011;62687;55.738;37.516;2023-03-25T04:51:49;3.47;;;2.03;;
74291;SDS011;62687;55.738;37.516;2023-03-25T04:54:34;3.60;;;1.92;;
74291;SDS011;62687;55.738;37.516;2023-03-25T04:57:18;5.10;;;2.13;;
74291;SDS011;62687;55.738;37.516;2023-03-25T05:00:03;5.05;;;2.33;;
74291;SDS011;62687;55.738;37.516;2023-03-25T05:02:50;4.30;;;2.70;;
74291;SDS011;62687;55.738;37.516;2023-03-25T05:05:36;6.55;;;2.97;;
74291;SDS011;62687;55.738;37.516;2023-03-25T05:11:05;7.68;;;2.75;;
74291;SDS011;62687;55.738;37.516;2023-03-25T05:13:49;6.68;;;3.13;;
74291;SDS011;62687;55.738;37.516;2023-03-25T05:16:34;4.88;;;2.92;;
74291;SDS011;62687;55.738;37.516;2023-03-25T05:19:18;5.50;;;3.10;;
74291;SDS011;62687;55.738;37.516;2023-03-25T05:22:03;9.10;;;3.10;;
74291;SDS011;62687;55.738;37.516;2023-03-25T05:24:47;6.13;;;3.20;;
74291;SDS011;62687;55.738;37.516;2023-03-25T05:27:36;6.55;;;3.40;;
74291;SDS011;62687;55.738;37.516;2023-03-25T05:33:05;9.75;;;3.60;;
74291;SDS011;62687;55.738;37.516;2023-03-25T05:35:49;5.38;;;2.67;;
74291;SDS011;62687;55.738;37.516;2023-03-25T05:38:33;12.05;;;3.03;;
74291;SDS011;62687;55.738;37.516;2023-03-25T05:41:20;7.18;;;3.60;;
74291;SDS011;62687;55.738;37.516;2023-03-25T05:44:15;5.13;;;3.33;;
74291;SDS011;62687;55.738;37.516;2023-03-25T05:47:01;5.40;;;3.45;;
74291;SDS011;62687;55.738;37.516;2023-03-25T05:49:46;8.25;;;4.03;;
74291;SDS011;62687;55.738;37.516;2023-03-25T05:52:31;6.00;;;3.30;;
74291;SDS011;62687;55.738;37.516;2023-03-25T05:55:16;7.55;;;4.15;;
74291;SDS011;62687;55.738;37.516;2023-03-25T05:58:02;6.40;;;3.30;;
74291;SDS011;62687;55.738;37.516;2023-03-25T06:00:47;8.50;;;3.92;;
74291;SDS011;62687;55.738;37.516;2023-03-25T06:03:31;9.57;;;3.70;;
74291;SDS011;62687;55.738;37.516;2023-03-25T06:06:17;6.80;;;3.45;;
74291;SDS011;62687;55.738;37.516;2023-03-25T06:09:01;8.30;;;3.80;;
74291;SDS011;62687;55.738;37.516;2023-03-25T06:14:36;7.10;;;3.97;;
74291;SDS011;62687;55.738;37.516;2023-03-25T06:17:20;5.05;;;3.45;;
74291;SDS011;62687;55.738;37.516;2023-03-25T06:20:08;5.90;;;3.15;;
74291;SDS011;62687;55.738;37.516;2023-03-25T06:22:55;11.30;;;3.63;;
74291;SDS011;62687;55.738;37.516;2023-03-25T06:26:02;5.55;;;3.53;;
74291;SDS011;62687;55.738;37.516;2023-03-25T06:29:09;7.80;;;4.10;;
74291;SDS011;62687;55.738;37.516;2023-03-25T06:32:25;10.40;;;3.60;;
74291;SDS011;62687;55.738;37.516;2023-03-25T06:35:14;6.45;;;3.25;;
74291;SDS011;62687;55.738;37.516;2023-03-25T06:38:11;8.15;;;4.03;;
74291;SDS011;62687;55.738;37.516;2023-03-25T06:41:09;7.38;;;4.03;;
74291;SDS011;62687;55.738;37.516;2023-03-25T06:44:04;6.88;;;3.50;;
74291;SDS011;62687;55.738;37.516;2023-03-25T06:46:50;8.32;;;4.20;;
74291;SDS011;62687;55.738;37.516;2023-03-25T06:49:42;10.50;;;4.00;;
74291;SDS011;62687;55.738;37.516;2023-03-25T06:52:36;8.57;;;4.38;;
74291;SDS011;62687;55.738;37.516;2023-03-25T06:55:23;10.57;;;4.63;;
74291;SDS011;62687;55.738;37.516;2023-03-25T06:58:29;10.10;;;5.38;;
74291;SDS011;62687;55.738;37.516;2023-03-25T07:01:28;8.50;;;4.38;;
74291;SDS011;62687;55.738;37.516;2023-03-25T07:04:21;9.80;;;4.32;;
74291;SDS011;62687;55.738;37.516;2023-03-25T07:07:27;10.95;;;4.90;;
74291;SDS011;62687;55.738;37.516;2023-03-25T07:10:12;10.55;;;5.68;;
74291;SDS011;62687;55.738;37.516;2023-03-25T07:12:57;9.48;;;4.63;;
74291;SDS011;62687;55.738;37.516;2023-03-25T07:18:48;8.52;;;4.97;;
74291;SDS011;62687;55.738;37.516;2023-03-25T07:21:45;15.52;;;5.15;;
74291;SDS011;62687;55.738;37.516;2023-03-25T07:24:30;12.02;;;4.88;;
74291;SDS011;62687;55.738;37.516;2023-03-25T07:29:46;12.73;;;5.78;;
74291;SDS011;62687;55.738;37.516;2023-03-25T07:32:30;11.38;;;5.90;;
74291;SDS011;62687;55.738;37.516;2023-03-25T07:35:15;14.00;;;6.30;;
74291;SDS011;62687;55.738;37.516;2023-03-25T07:37:59;15.23;;;7.20;;
74291;SDS011;62687;55.738;37.516;2023-03-25T07:40:43;10.85;;;6.95;;
74291;SDS011;62687;55.738;37.516;2023-03-25T07:43:27;13.98;;;6.60;;
74291;SDS011;62687;55.738;37.516;2023-03-25T07:46:13;9.77;;;5.78;;
74291;SDS011;62687;55.738;37.516;2023-03-25T07:49:16;11.90;;;6.40;;
74291;SDS011;62687;55.738;37.516;2023-03-25T07:52:00;13.40;;;5.65;;
74291;SDS011;62687;55.738;37.516;2023-03-25T07:55:03;9.00;;;6.05;;
74291;SDS011;62687;55.738;37.516;2023-03-25T07:57:48;11.82;;;6.18;;
74291;SDS011;62687;55.738;37.516;2023-03-25T08:00:32;11.02;;;5.40;;
74291;SDS011;62687;55.738;37.516;2023-03-25T08:03:16;9.95;;;5.43;;
74291;SDS011;62687;55.738;37.516;2023-03-25T08:06:00;8.75;;;5.45;;
74291;SDS011;62687;55.738;37.516;2023-03-25T08:08:45;10.65;;;6.10;;
74291;SDS011;62687;55.738;37.516;2023-03-25T08:11:29;12.90;;;6.63;;
74291;SDS011;62687;55.738;37.516;2023-03-25T08:14:13;10.15;;;5.47;;
74291;SDS011;62687;55.738;37.516;2023-03-25T08:20:00;8.75;;;5.38;;
74291;SDS011;62687;55.738;37.516;2023-03-25T08:23:04;9.05;;;3.85;;
74291;SDS011;62687;55.738;37.516;2023-03-25T08:26:06;11.25;;;6.50;;
74291;SDS011;62687;55.738;37.516;2023-03-25T08:28:51;15.45;;;7.20;;
74291;SDS011;62687;55.738;37.516;2023-03-25T08:31:37;11.60;;;6.82;;
74291;SDS011;62687;55.738;37.516;2023-03-25T08:37:07;10.43;;;6.80;;
74291;SDS011;62687;55.738;37.516;2023-03-25T08:39:52;10.82;;;6.10;;
74291;SDS011;62687;55.738;37.516;2023-03-25T08:42:38;14.35;;;7.53;;
74291;SDS011;62687;55.738;37.516;2023-03-25T08:45:23;10.60;;;7.05;;
74291;SDS011;62687;55.738;37.516;2023-03-25T08:48:07;18.33;;;6.57;;
74291;SDS011;62687;55.738;37.516;2023-03-25T08:50:51;14.70;;;7.45;;
74291;SDS011;62687;55.738;37.516;2023-03-25T08:53:36;13.32;;;7.38;;
74291;SDS011;62687;55.738;37.516;2023-03-25T08:56:20;17.13;;;7.53;;
74291;SDS011;62687;55.738;37.516;2023-03-25T09:02:10;11.43;;;5.50;;
74291;SDS011;62687;55.738;37.516;2023-03-25T09:04:55;16.55;;;7.47;;
74291;SDS011;62687;55.738;37.516;2023-03-25T09:07:39;10.95;;;6.93;;
74291;SDS011;62687;55.738;37.516;2023-03-25T09:10:23;16.02;;;7.00;;
74291;SDS011;62687;55.738;37.516;2023-03-25T09:13:07;12.65;;;6.53;;
74291;SDS011;62687;55.738;37.516;2023-03-25T09:15:51;13.63;;;6.72;;
74291;SDS011;62687;55.738;37.516;2023-03-25T09:18:35;12.82;;;6.78;;
74291;SDS011;62687;55.738;37.516;2023-03-25T09:21:20;10.05;;;6.68;;
74291;SDS011;62687;55.738;37.516;2023-03-25T09:24:06;12.65;;;7.55;;
74291;SDS011;62687;55.738;37.516;2023-03-25T09:26:50;10.40;;;6.32;;
74291;SDS011;62687;55.738;37.516;2023-03-25T09:29:34;14.65;;;6.88;;
74291;SDS011;62687;55.738;37.516;2023-03-25T09:32:37;10.98;;;6.38;;
74291;SDS011;62687;55.738;37.516;2023-03-25T09:35:22;10.25;;;6.50;;
74291;SDS011;62687;55.738;37.516;2023-03-25T09:38:06;10.52;;;6.57;;
74291;SDS011;62687;55.738;37.516;2023-03-25T09:40:50;9.52;;;6.10;;
74291;SDS011;62687;55.738;37.516;2023-03-25T09:46:27;12.65;;;7.15;;
74291;SDS011;62687;55.738;37.516;2023-03-25T09:49:13;9.32;;;5.90;;
74291;SDS011;62687;55.738;37.516;2023-03-25T09:52:02;13.73;;;8.15;;
74291;SDS011;62687;55.738;37.516;2023-03-25T09:54:49;10.88;;;7.28;;
74291;SDS011;62687;55.738;37.516;2023-03-25T09:57:39;13.52;;;7.28;;
74291;SDS011;62687;55.738;37.516;2023-03-25T10:00:29;10.68;;;7.30;;
74291;SDS011;62687;55.738;37.516;2023-03-25T10:03:17;11.15;;;6.75;;
74291;SDS011;62687;55.738;37.516;2023-03-25T10:12:10;12.52;;;7.63;;
74291;SDS011;62687;55.738;37.516;2023-03-25T10:27:39;11.80;;;6.53;;
74291;SDS011;62687;55.738;37.516;2023-03-25T10:30:29;12.38;;;8.30;;
74291;SDS011;62687;55.738;37.516;2023-03-25T10:33:21;15.50;;;9.15;;
74291;SDS011;62687;55.738;37.516;2023-03-25T10:36:19;12.52;;;8.82;;
74291;SDS011;62687;55.738;37.516;2023-03-25T10:39:23;14.45;;;7.50;;
74291;SDS011;62687;55.738;37.516;2023-03-25T10:42:14;13.60;;;8.70;;
74291;SDS011;62687;55.738;37.516;2023-03-25T10:45:00;10.60;;;7.60;;
74291;SDS011;62687;55.738;37.516;2023-03-25T10:47:45;14.13;;;8.32;;
74291;SDS011;62687;55.738;37.516;2023-03-25T10:53:18;10.88;;;6.88;;
74291;SDS011;62687;55.738;37.516;2023-03-25T10:56:09;10.27;;;7.10;;
74291;SDS011;62687;55.738;37.516;2023-03-25T11:02:27;12.40;;;7.32;;
74291;SDS011;62687;55.738;37.516;2023-03-25T11:05:15;14.07;;;7.55;;
74291;SDS011;62687;55.738;37.516;2023-03-25T11:08:05;16.90;;;7.60;;
74291;SDS011;62687;55.738;37.516;2023-03-25T11:10:52;10.68;;;6.38;;
74291;SDS011;62687;55.738;37.516;2023-03-25T11:13:42;13.55;;;7.30;;
74291;SDS011;62687;55.738;37.516;2023-03-25T11:16:33;12.10;;;7.18;;
74291;SDS011;62687;55.738;37.516;2023-03-25T11:22:38;10.20;;;6.45;;
74291;SDS011;62687;55.738;37.516;2023-03-25T11:25:31;12.55;;;8.05;;
74291;SDS011;62687;55.738;37.516;2023-03-25T11:28:45;10.18;;;7.10;;
74291;SDS011;62687;55.738;37.516;2023-03-25T11:31:33;12.50;;;8.18;;
74291;SDS011;62687;55.738;37.516;2023-03-25T11:34:20;15.75;;;7.60;;
74291;SDS011;62687;55.738;37.516;2023-03-25T11:37:27;11.93;;;7.63;;
74291;SDS011;62687;55.738;37.516;2023-03-25T11:40:15;10.10;;;6.90;;
74291;SDS011;62687;55.738;37.516;2023-03-25T11:43:02;11.55;;;8.38;;
74291;SDS011;62687;55.738;37.516;2023-03-25T11:45:47;12.00;;;7.38;;
74291;SDS011;62687;55.738;37.516;2023-03-25T11:48:34;9.07;;;5.97;;
74291;SDS011;62687;55.738;37.516;2023-03-25T11:57:18;15.45;;;8.70;;
74291;SDS011;62687;55.738;37.516;2023-03-25T12:03:18;13.30;;;6.55;;
74291;SDS011;62687;55.738;37.516;2023-03-25T12:08:59;14.13;;;6.43;;
74291;SDS011;62687;55.738;37.516;2023-03-25T12:11:54;11.85;;;7.97;;
74291;SDS011;62687;55.738;37.516;2023-03-25T12:14:51;15.75;;;8.75;;
74291;SDS011;62687;55.738;37.516;2023-03-25T12:36:50;10.60;;;6.30;;
74291;SDS011;62687;55.738;37.516;2023-03-25T12:46:05;12.70;;;8.25;;
74291;SDS011;62687;55.738;37.516;2023-03-25T12:52:07;13.35;;;7.60;;
74291;SDS011;62687;55.738;37.516;2023-03-25T12:54:58;13.85;;;6.93;;
74291;SDS011;62687;55.738;37.516;2023-03-25T13:01:28;13.82;;;7.75;;
74291;SDS011;62687;55.738;37.516;2023-03-25T13:07:25;14.70;;;9.95;;
74291;SDS011;62687;55.738;37.516;2023-03-25T13:10:22;20.38;;;11.07;;
74291;SDS011;62687;55.738;37.516;2023-03-25T13:13:18;20.55;;;11.27;;
74291;SDS011;62687;55.738;37.516;2023-03-25T13:16:10;19.35;;;12.32;;
74291;SDS011;62687;55.738;37.516;2023-03-25T13:19:02;19.73;;;12.55;;
74291;SDS011;62687;55.738;37.516;2023-03-25T13:21:49;19.00;;;11.13;;
74291;SDS011;62687;55.738;37.516;2023-03-25T13:24:55;25.75;;;13.75;;
74291;SDS011;62687;55.738;37.516;2023-03-25T13:27:42;20.00;;;10.63;;
74291;SDS011;62687;55.738;37.516;2023-03-25T13:30:46;14.95;;;8.93;;
74291;SDS011;62687;55.738;37.516;2023-03-25T13:33:32;11.15;;;6.97;;
74291;SDS011;62687;55.738;37.516;2023-03-25T13:36:28;15.13;;;8.00;;
74291;SDS011;62687;55.738;37.516;2023-03-25T13:39:19;13.38;;;8.65;;
74291;SDS011;62687;55.738;37.516;2023-03-25T13:42:06;15.10;;;8.60;;
74291;SDS011;62687;55.738;37.516;2023-03-25T13:47:42;12.82;;;6.53;;
74291;SDS011;62687;55.738;37.516;2023-03-25T13:50:35;13.82;;;8.43;;
74291;SDS011;62687;55.738;37.516;2023-03-25T13:59:51;15.70;;;8.93;;
74291;SDS011;62687;55.738;37.516;2023-03-25T14:02:52;13.45;;;9.07;;
74291;SDS011;62687;55.738;37.516;2023-03-25T14:12:27;14.90;;;6.03;;
74291;SDS011;62687;55.738;37.516;2023-03-25T14:15:24;16.90;;;8.68;;
74291;SDS011;62687;55.738;37.516;2023-03-25T14:18:17;15.85;;;8.80;;
74291;SDS011;62687;55.738;37.516;2023-03-25T14:27:36;15.00;;;9.02;;
74291;SDS011;62687;55.738;37.516;2023-03-25T14:30:21;14.18;;;8.00;;
74291;SDS011;62687;55.738;37.516;2023-03-25T14:33:08;11.32;;;7.93;;
74291;SDS011;62687;55.738;37.516;2023-03-25T14:35:53;15.05;;;7.65;;
74291;SDS011;62687;55.738;37.516;2023-03-25T14:38:50;14.15;;;8.75;;
74291;SDS011;62687;55.738;37.516;2023-03-25T14:42:21;16.17;;;9.75;;
74291;SDS011;62687;55.738;37.516;2023-03-25T14:44:50;18.45;;;9.80;;
74291;SDS011;62687;55.738;37.516;2023-03-25T14:47:49;14.68;;;8.32;;
74291;SDS011;62687;55.738;37.516;2023-03-25T14:56:24;12.98;;;7.65;;
74291;SDS011;62687;55.738;37.516;2023-03-25T14:59:49;12.15;;;8.23;;
74291;SDS011;62687;55.738;37.516;2023-03-25T15:05:52;10.55;;;7.50;;
74291;SDS011;62687;55.738;37.516;2023-03-25T15:08:39;12.18;;;7.43;;
74291;SDS011;62687;55.738;37.516;2023-03-25T15:11:26;9.45;;;6.50;;
74291;SDS011;62687;55.738;37.516;2023-03-25T15:17:09;11.95;;;5.43;;
74291;SDS011;62687;55.738;37.516;2023-03-25T15:26:40;11.43;;;6.20;;
74291;SDS011;62687;55.738;37.516;2023-03-25T15:47:40;9.30;;;5.97;;
74291;SDS011;62687;55.738;37.516;2023-03-25T15:54:09;8.52;;;6.05;;
74291;SDS011;62687;55.738;37.516;2023-03-25T16:03:17;10.07;;;5.95;;
74291;SDS011;62687;55.738;37.516;2023-03-25T16:06:05;9.05;;;5.70;;
74291;SDS011;62687;55.738;37.516;2023-03-25T16:08:50;10.85;;;5.70;;
74291;SDS011;62687;55.738;37.516;2023-03-25T16:11:40;10.10;;;5.82;;
74291;SDS011;62687;55.738;37.516;2023-03-25T16:14:29;9.25;;;5.30;;
74291;SDS011;62687;55.738;37.516;2023-03-25T16:17:16;9.93;;;6.45;;
74291;SDS011;62687;55.738;37.516;2023-03-25T16:20:03;11.20;;;6.20;;
74291;SDS011;62687;55.738;37.516;2023-03-25T16:26:35;10.80;;;5.82;;
74291;SDS011;62687;55.738;37.516;2023-03-25T16:29:26;5.38;;;2.50;;
74291;SDS011;62687;55.738;37.516;2023-03-25T16:32:33;8.63;;;5.90;;
74291;SDS011;62687;55.738;37.516;2023-03-25T16:35:25;8.00;;;5.78;;
74291;SDS011;62687;55.738;37.516;2023-03-25T16:38:14;9.40;;;5.90;;
74291;SDS011;62687;55.738;37.516;2023-03-25T16:41:01;7.75;;;5.82;;
74291;SDS011;62687;55.738;37.516;2023-03-25T16:43:50;8.80;;;6.10;;
74291;SDS011;62687;55.738;37.516;2023-03-25T16:53:02;10.20;;;7.07;;
74291;SDS011;62687;55.738;37.516;2023-03-25T17:01:51;8.25;;;5.03;;
74291;SDS011;62687;55.738;37.516;2023-03-25T17:04:38;7.65;;;5.32;;
74291;SDS011;62687;55.738;37.516;2023-03-25T17:07:25;8.05;;;5.47;;
74291;SDS011;62687;55.738;37.516;2023-03-25T17:10:18;8.57;;;4.82;;
74291;SDS011;62687;55.738;37.516;2023-03-25T17:13:06;10.30;;;6.40;;
74291;SDS011;62687;55.738;37.516;2023-03-25T17:15:52;8.52;;;5.40;;
74291;SDS011;62687;55.738;37.516;2023-03-25T17:19:14;9.82;;;6.22;;
74291;SDS011;62687;55.738;37.516;2023-03-25T17:26:00;8.95;;;5.70;;
74291;SDS011;62687;55.738;37.516;2023-03-25T17:31:59;13.68;;;9.05;;
74291;SDS011;62687;55.738;37.516;2023-03-25T17:34:53;11.85;;;7.95;;
74291;SDS011;62687;55.738;37.516;2023-03-25T17:37:38;14.13;;;10.10;;
74291;SDS011;62687;55.738;37.516;2023-03-25T17:40:23;16.48;;;8.85;;
74291;SDS011;62687;55.738;37.516;2023-03-25T17:43:15;7.65;;;3.80;;
74291;SDS011;62687;55.738;37.516;2023-03-25T17:46:03;13.77;;;7.45;;
74291;SDS011;62687;55.738;37.516;2023-03-25T17:48:49;9.90;;;6.90;;
74291;SDS011;62687;55.738;37.516;2023-03-25T17:51:36;10.90;;;7.22;;
74291;SDS011;62687;55.738;37.516;2023-03-25T17:54:20;12.88;;;7.30;;
74291;SDS011;62687;55.738;37.516;2023-03-25T18:00:08;15.52;;;7.43;;
74291;SDS011;62687;55.738;37.516;2023-03-25T18:03:22;11.40;;;7.53;;
74291;SDS011;62687;55.738;37.516;2023-03-25T18:06:07;10.45;;;7.57;;
74291;SDS011;62687;55.738;37.516;2023-03-25T18:08:54;8.95;;;5.97;;
74291;SDS011;62687;55.738;37.516;2023-03-25T18:11:38;11.93;;;7.15;;
74291;SDS011;62687;55.738;37.516;2023-03-25T18:14:23;10.05;;;6.13;;
74291;SDS011;62687;55.738;37.516;2023-03-25T18:17:10;9.18;;;6.32;;
74291;SDS011;62687;55.738;37.516;2023-03-25T18:19:55;11.75;;;7.40;;
74291;SDS011;62687;55.738;37.516;2023-03-25T18:22:39;15.15;;;7.25;;
74291;SDS011;62687;55.738;37.516;2023-03-25T18:25:42;12.73;;;8.18;;
74291;SDS011;62687;55.738;37.516;2023-03-25T18:28:30;10.98;;;7.82;;
74291;SDS011;62687;55.738;37.516;2023-03-25T18:31:15;11.10;;;7.25;;
74291;SDS011;62687;55.738;37.516;2023-03-25T18:34:00;13.05;;;8.02;;
74291;SDS011;62687;55.738;37.516;2023-03-25T18:36:44;11.52;;;6.88;;
74291;SDS011;62687;55.738;37.516;2023-03-25T18:39:28;10.55;;;6.65;;
74291;SDS011;62687;55.738;37.516;2023-03-25T18:42:14;11.10;;;7.65;;
74291;SDS011;62687;55.738;37.516;2023-03-25T18:44:58;14.23;;;8.63;;
74291;SDS011;62687;55.738;37.516;2023-03-25T18:47:43;11.63;;;7.70;;
74291;SDS011;62687;55.738;37.516;2023-03-25T18:54:10;12.23;;;7.90;;
74291;SDS011;62687;55.738;37.516;2023-03-25T18:56:54;10.60;;;7.53;;
74291;SDS011;62687;55.738;37.516;2023-03-25T18:59:39;11.20;;;6.68;;
74291;SDS011;62687;55.738;37.516;2023-03-25T19:02:23;12.35;;;8.43;;
74291;SDS011;62687;55.738;37.516;2023-03-25T19:05:07;10.88;;;6.65;;
74291;SDS011;62687;55.738;37.516;2023-03-25T19:07:52;11.20;;;8.02;;
74291;SDS011;62687;55.738;37.516;2023-03-25T19:10:36;11.90;;;7.32;;
74291;SDS011;62687;55.738;37.516;2023-03-25T19:13:21;17.88;;;8.02;;
74291;SDS011;62687;55.738;37.516;2023-03-25T19:16:05;11.27;;;7.07;;
74291;SDS011;62687;55.738;37.516;2023-03-25T19:18:50;12.25;;;7.75;;
74291;SDS011;62687;55.738;37.516;2023-03-25T19:21:34;12.05;;;8.18;;
74291;SDS011;62687;55.738;37.516;2023-03-25T19:24:19;11.52;;;7.35;;
74291;SDS011;62687;55.738;37.516;2023-03-25T19:27:03;12.32;;;7.95;;
74291;SDS011;62687;55.738;37.516;2023-03-25T19:30:08;13.07;;;8.38;;
74291;SDS011;62687;55.738;37.516;2023-03-25T19:32:53;14.10;;;7.57;;
74291;SDS011;62687;55.738;37.516;2023-03-25T19:35:39;14.13;;;8.73;;
74291;SDS011;62687;55.738;37.516;2023-03-25T19:38:24;13.52;;;9.90;;
74291;SDS011;62687;55.738;37.516;2023-03-25T19:41:10;12.52;;;9.63;;
74291;SDS011;62687;55.738;37.516;2023-03-25T19:43:56;14.95;;;10.13;;
74291;SDS011;62687;55.738;37.516;2023-03-25T19:46:40;13.00;;;8.43;;
74291;SDS011;62687;55.738;37.516;2023-03-25T19:52:28;11.25;;;8.57;;
74291;SDS011;62687;55.738;37.516;2023-03-25T19:55:31;13.02;;;9.20;;
74291;SDS011;62687;55.738;37.516;2023-03-25T19:58:16;15.00;;;8.63;;
74291;SDS011;62687;55.738;37.516;2023-03-25T20:01:00;10.73;;;7.40;;
74291;SDS011;62687;55.738;37.516;2023-03-25T20:03:44;10.65;;;7.63;;
74291;SDS011;62687;55.738;37.516;2023-03-25T20:06:29;16.17;;;9.55;;
74291;SDS011;62687;55.738;37.516;2023-03-25T20:09:13;14.38;;;9.70;;
74291;SDS011;62687;55.738;37.516;2023-03-25T20:11:57;11.85;;;8.45;;
74291;SDS011;62687;55.738;37.516;2023-03-25T20:14:41;13.77;;;8.80;;
74291;SDS011;62687;55.738;37.516;2023-03-25T20:20:30;13.38;;;7.80;;
74291;SDS011;62687;55.738;37.516;2023-03-25T20:23:14;11.43;;;7.90;;
74291;SDS011;62687;55.738;37.516;2023-03-25T20:25:58;12.48;;;7.05;;
74291;SDS011;62687;55.738;37.516;2023-03-25T20:28:43;9.75;;;6.88;;
74291;SDS011;62687;55.738;37.516;2023-03-25T20:31:27;10.25;;;7.18;;
74291;SDS011;62687;55.738;37.516;2023-03-25T20:34:11;13.20;;;7.25;;
74291;SDS011;62687;55.738;37.516;2023-03-25T20:36:56;12.13;;;7.97;;
74291;SDS011;62687;55.738;37.516;2023-03-25T20:39:40;10.50;;;7.75;;
74291;SDS011;62687;55.738;37.516;2023-03-25T20:42:25;12.32;;;7.20;;
74291;SDS011;62687;55.738;37.516;2023-03-25T20:45:10;10.38;;;7.40;;
74291;SDS011;62687;55.738;37.516;2023-03-25T20:47:56;12.63;;;7.43;;